sensor_id;sensor_type;location;lat;lon;timestamp;pressure;altitude;pressure_sealevel;temperature;humidity
40245;BME280;25963;42.694;23.600;2023-05-10T00:02:25;95469.56;;;9.89;100.00
40245;BME280;25963;42.694;23.600;2023-05-10T00:04:50;95474.75;;;10.22;100.00
40245;BME280;25963;42.694;23.600;2023-05-10T00:07:16;95477.59;;;10.14;100.00
40245;BME280;25963;42.694;23.600;2023-05-10T00:09:43;95497.03;;;10.26;100.00
40245;BME280;25963;42.694;23.600;2023-05-10T00:12:08;95467.47;;;10.11;100.00
40245;BME280;25963;42.694;23.600;2023-05-10T00:14:34;95471.50;;;10.20;100.00
40245;BME280;25963;42.694;23.600;2023-05-10T00:17:00;95460.56;;;10.16;100.00
40245;BME280;25963;42.694;23.600;2023-05-10T00:19:26;95500.28;;;10.48;100.00
40245;BME280;25963;42.694;23.600;2023-05-10T00:21:51;95483.88;;;10.33;100.00
40245;BME280;25963;42.694;23.600;2023-05-10T00:24:17;95482.66;;;10.22;100.00
40245;BME280;25963;42.694;23.600;2023-05-10T00:26:42;95475.16;;;10.19;100.00
40245;BME280;25963;42.694;23.600;2023-05-10T00:29:08;95452.94;;;9.88;100.00
40245;BME280;25963;42.694;23.600;2023-05-10T00:31:33;95446.81;;;10.01;100.00
40245;BME280;25963;42.694;23.600;2023-05-10T00:33:59;95465.41;;;10.26;100.00
40245;BME280;25963;42.694;23.600;2023-05-10T00:36:24;95471.91;;;10.23;100.00
40245;BME280;25963;42.694;23.600;2023-05-10T00:38:50;95472.31;;;10.14;100.00
40245;BME280;25963;42.694;23.600;2023-05-10T00:41:15;95490.16;;;10.25;100.00
40245;BME280;25963;42.694;23.600;2023-05-10T00:43:41;95471.94;;;10.10;100.00
40245;BME280;25963;42.694;23.600;2023-05-10T00:46:07;95453.13;;;9.93;100.00
40245;BME280;25963;42.694;23.600;2023-05-10T00:48:33;95451.25;;;10.07;100.00
40245;BME280;25963;42.694;23.600;2023-05-10T00:50:59;95484.25;;;10.23;100.00
40245;BME280;25963;42.694;23.600;2023-05-10T00:53:24;95451.25;;;10.14;100.00
40245;BME280;25963;42.694;23.600;2023-05-10T00:55:50;95471.94;;;10.30;100.00
40245;BME280;25963;42.694;23.600;2023-05-10T00:58:16;95460.78;;;10.15;100.00
40245;BME280;25963;42.694;23.600;2023-05-10T01:00:42;95447.41;;;10.10;100.00
40245;BME280;25963;42.694;23.600;2023-05-10T01:03:10;95459.81;;;10.02;100.00
40245;BME280;25963;42.694;23.600;2023-05-10T01:05:36;95474.38;;;10.12;100.00
40245;BME280;25963;42.694;23.600;2023-05-10T01:08:02;95459.03;;;9.82;100.00
40245;BME280;25963;42.694;23.600;2023-05-10T01:10:27;95456.59;;;9.80;100.00
40245;BME280;25963;42.694;23.600;2023-05-10T01:12:53;95451.88;;;10.09;100.00
40245;BME280;25963;42.694;23.600;2023-05-10T01:15:20;95437.91;;;9.95;100.00
40245;BME280;25963;42.694;23.600;2023-05-10T01:17:46;95446.47;;;9.77;100.00
40245;BME280;25963;42.694;23.600;2023-05-10T01:20:13;95477.63;;;10.00;100.00
40245;BME280;25963;42.694;23.600;2023-05-10T01:26:00;95471.94;;;10.30;100.00
40245;BME280;25963;42.694;23.600;2023-05-10T01:28:39;95475.13;;;10.45;100.00
40245;BME280;25963;42.694;23.600;2023-05-10T01:39:09;95467.25;;;10.19;100.00
40245;BME280;25963;42.694;23.600;2023-05-10T01:42:17;95463.22;;;10.30;100.00
40245;BME280;25963;42.694;23.600;2023-05-10T01:44:37;95453.03;;;10.20;100.00
40245;BME280;25963;42.694;23.600;2023-05-10T01:47:10;95455.88;;;10.32;100.00
40245;BME280;25963;42.694;23.600;2023-05-10T01:49:50;95450.16;;;10.48;100.00
40245;BME280;25963;42.694;23.600;2023-05-10T01:52:18;95456.84;;;10.50;100.00
40245;BME280;25963;42.694;23.600;2023-05-10T01:54:49;95455.75;;;10.65;100.00
40245;BME280;25963;42.694;23.600;2023-05-10T01:57:20;95433.50;;;10.54;100.00
40245;BME280;25963;42.694;23.600;2023-05-10T01:59:50;95452.91;;;10.66;100.00
40245;BME280;25963;42.694;23.600;2023-05-10T02:02:17;95448.31;;;10.48;100.00
40245;BME280;25963;42.694;23.600;2023-05-10T02:04:44;95434.06;;;10.63;100.00
40245;BME280;25963;42.694;23.600;2023-05-10T02:07:11;95464.28;;;10.67;100.00
40245;BME280;25963;42.694;23.600;2023-05-10T02:09:38;95465.63;;;10.31;100.00
40245;BME280;25963;42.694;23.600;2023-05-10T02:12:05;95449.22;;;10.16;100.00
40245;BME280;25963;42.694;23.600;2023-05-10T02:14:35;95460.59;;;10.10;100.00
40245;BME280;25963;42.694;23.600;2023-05-10T02:17:02;95457.31;;;10.21;100.00
40245;BME280;25963;42.694;23.600;2023-05-10T02:19:30;95444.03;;;9.63;100.00
40245;BME280;25963;42.694;23.600;2023-05-10T02:21:57;95440.03;;;9.33;100.00
40245;BME280;25963;42.694;23.600;2023-05-10T02:24:25;95480.53;;;9.52;100.00
40245;BME280;25963;42.694;23.600;2023-05-10T02:26:53;95486.75;;;9.18;100.00
40245;BME280;25963;42.694;23.600;2023-05-10T02:29:22;95458.19;;;9.08;100.00
40245;BME280;25963;42.694;23.600;2023-05-10T02:31:49;95478.47;;;9.14;100.00
40245;BME280;25963;42.694;23.600;2023-05-10T02:34:16;95465.06;;;9.03;100.00
40245;BME280;25963;42.694;23.600;2023-05-10T02:36:42;95465.06;;;8.96;100.00
40245;BME280;25963;42.694;23.600;2023-05-10T02:39:09;95459.00;;;8.89;100.00
40245;BME280;25963;42.694;23.600;2023-05-10T02:41:40;95458.16;;;8.82;100.00
40245;BME280;25963;42.694;23.600;2023-05-10T02:44:07;95462.59;;;8.75;100.00
40245;BME280;25963;42.694;23.600;2023-05-10T02:46:34;95460.59;;;8.77;100.00
40245;BME280;25963;42.694;23.600;2023-05-10T02:49:00;95469.06;;;8.79;100.00
40245;BME280;25963;42.694;23.600;2023-05-10T02:51:29;95456.94;;;8.78;100.00
40245;BME280;25963;42.694;23.600;2023-05-10T02:53:57;95483.06;;;8.86;100.00
40245;BME280;25963;42.694;23.600;2023-05-10T02:56:29;95479.81;;;8.77;100.00
40245;BME280;25963;42.694;23.600;2023-05-10T02:58:56;95457.97;;;8.83;100.00
40245;BME280;25963;42.694;23.600;2023-05-10T03:01:22;95480.63;;;8.78;100.00
40245;BME280;25963;42.694;23.600;2023-05-10T03:03:47;95464.59;;;8.73;100.00
40245;BME280;25963;42.694;23.600;2023-05-10T03:06:13;95452.47;;;8.78;100.00
40245;BME280;25963;42.694;23.600;2023-05-10T03:08:39;95454.44;;;8.56;100.00
40245;BME280;25963;42.694;23.600;2023-05-10T03:13:39;95460.22;;;8.93;100.00
40245;BME280;25963;42.694;23.600;2023-05-10T03:16:12;95490.63;;;9.35;100.00
40245;BME280;25963;42.694;23.600;2023-05-10T03:18:56;95473.59;;;9.18;100.00
40245;BME280;25963;42.694;23.600;2023-05-10T03:21:29;95487.00;;;9.50;100.00
40245;BME280;25963;42.694;23.600;2023-05-10T03:24:15;95489.22;;;9.59;100.00
40245;BME280;25963;42.694;23.600;2023-05-10T03:26:43;95486.56;;;9.33;100.00
40245;BME280;25963;42.694;23.600;2023-05-10T03:29:11;95479.88;;;9.10;100.00
40245;BME280;25963;42.694;23.600;2023-05-10T03:31:38;95466.00;;;8.68;100.00
40245;BME280;25963;42.694;23.600;2023-05-10T03:34:03;95497.72;;;8.54;100.00
40245;BME280;25963;42.694;23.600;2023-05-10T03:36:29;95483.69;;;8.40;100.00
40245;BME280;25963;42.694;23.600;2023-05-10T03:38:54;95482.63;;;8.34;100.00
40245;BME280;25963;42.694;23.600;2023-05-10T03:41:20;95490.00;;;8.52;100.00
40245;BME280;25963;42.694;23.600;2023-05-10T03:43:45;95497.31;;;8.57;100.00
40245;BME280;25963;42.694;23.600;2023-05-10T03:46:11;95486.69;;;8.37;100.00
40245;BME280;25963;42.694;23.600;2023-05-10T03:48:36;95460.47;;;8.09;100.00
40245;BME280;25963;42.694;23.600;2023-05-10T03:51:02;95498.91;;;8.51;100.00
40245;BME280;25963;42.694;23.600;2023-05-10T03:53:27;95478.66;;;8.45;100.00
40245;BME280;25963;42.694;23.600;2023-05-10T03:55:53;95470.63;;;8.53;100.00
40245;BME280;25963;42.694;23.600;2023-05-10T03:58:18;95477.19;;;8.84;100.00
40245;BME280;25963;42.694;23.600;2023-05-10T04:00:44;95500.25;;;8.82;100.00
40245;BME280;25963;42.694;23.600;2023-05-10T04:03:11;95498.84;;;8.86;100.00
40245;BME280;25963;42.694;23.600;2023-05-10T04:05:37;95489.94;;;8.80;100.00
40245;BME280;25963;42.694;23.600;2023-05-10T04:08:03;95473.06;;;8.61;100.00
40245;BME280;25963;42.694;23.600;2023-05-10T04:10:28;95493.75;;;8.71;100.00
40245;BME280;25963;42.694;23.600;2023-05-10T04:12:54;95485.72;;;8.93;100.00
40245;BME280;25963;42.694;23.600;2023-05-10T04:15:19;95467.28;;;8.86;100.00
40245;BME280;25963;42.694;23.600;2023-05-10T04:17:45;95496.41;;;8.91;100.00
40245;BME280;25963;42.694;23.600;2023-05-10T04:20:11;95515.84;;;8.90;100.00
40245;BME280;25963;42.694;23.600;2023-05-10T04:22:37;95507.28;;;8.68;100.00
40245;BME280;25963;42.694;23.600;2023-05-10T04:25:03;95501.41;;;8.66;100.00
40245;BME280;25963;42.694;23.600;2023-05-10T04:27:29;95497.47;;;9.03;100.00
40245;BME280;25963;42.694;23.600;2023-05-10T04:29:54;95506.59;;;9.07;100.00
40245;BME280;25963;42.694;23.600;2023-05-10T04:32:20;95486.28;;;8.88;100.00
40245;BME280;25963;42.694;23.600;2023-05-10T04:34:46;95487.72;;;8.97;100.00
40245;BME280;25963;42.694;23.600;2023-05-10T04:37:11;95468.28;;;8.85;100.00
40245;BME280;25963;42.694;23.600;2023-05-10T04:39:37;95492.19;;;8.97;100.00
40245;BME280;25963;42.694;23.600;2023-05-10T04:42:05;95482.84;;;8.81;100.00
40245;BME280;25963;42.694;23.600;2023-05-10T04:44:31;95490.97;;;8.99;100.00
40245;BME280;25963;42.694;23.600;2023-05-10T04:46:57;95509.22;;;9.07;100.00
40245;BME280;25963;42.694;23.600;2023-05-10T04:49:23;95486.81;;;8.63;100.00
40245;BME280;25963;42.694;23.600;2023-05-10T04:51:48;95480.84;;;8.89;100.00
40245;BME280;25963;42.694;23.600;2023-05-10T04:54:14;95485.66;;;8.73;100.00
40245;BME280;25963;42.694;23.600;2023-05-10T04:56:42;95480.00;;;8.82;100.00
40245;BME280;25963;42.694;23.600;2023-05-10T04:59:08;95478.63;;;8.86;100.00
40245;BME280;25963;42.694;23.600;2023-05-10T05:01:33;95482.47;;;8.97;100.00
40245;BME280;25963;42.694;23.600;2023-05-10T05:04:02;95495.84;;;9.02;100.00
40245;BME280;25963;42.694;23.600;2023-05-10T05:06:27;95502.13;;;8.95;100.00
40245;BME280;25963;42.694;23.600;2023-05-10T05:08:53;95505.16;;;8.91;100.00
40245;BME280;25963;42.694;23.600;2023-05-10T05:11:18;95490.97;;;8.99;100.00
40245;BME280;25963;42.694;23.600;2023-05-10T05:13:44;95488.97;;;9.01;100.00
40245;BME280;25963;42.694;23.600;2023-05-10T05:16:09;95518.16;;;9.06;100.00
40245;BME280;25963;42.694;23.600;2023-05-10T05:18:36;95483.66;;;8.81;100.00
40245;BME280;25963;42.694;23.600;2023-05-10T05:21:01;95508.78;;;8.97;100.00
40245;BME280;25963;42.694;23.600;2023-05-10T05:23:26;95518.16;;;9.06;100.00
40245;BME280;25963;42.694;23.600;2023-05-10T05:25:52;95486.50;;;8.86;100.00
40245;BME280;25963;42.694;23.600;2023-05-10T05:28:19;95518.16;;;9.20;100.00
40245;BME280;25963;42.694;23.600;2023-05-10T05:30:44;95495.09;;;9.22;100.00
40245;BME280;25963;42.694;23.600;2023-05-10T05:33:10;95498.53;;;9.29;100.00
40245;BME280;25963;42.694;23.600;2023-05-10T05:35:36;95517.97;;;9.41;100.00
40245;BME280;25963;42.694;23.600;2023-05-10T05:38:02;95489.81;;;9.42;100.00
40245;BME280;25963;42.694;23.600;2023-05-10T05:40:27;95500.56;;;9.40;100.00
40245;BME280;25963;42.694;23.600;2023-05-10T05:42:53;95506.03;;;9.58;100.00
40245;BME280;25963;42.694;23.600;2023-05-10T05:45:18;95537.88;;;9.64;100.00
40245;BME280;25963;42.694;23.600;2023-05-10T05:47:43;95508.28;;;9.55;100.00
40245;BME280;25963;42.694;23.600;2023-05-10T05:50:09;95541.72;;;9.54;100.00
40245;BME280;25963;42.694;23.600;2023-05-10T05:52:35;95517.19;;;9.60;100.00
40245;BME280;25963;42.694;23.600;2023-05-10T05:55:01;95528.31;;;9.63;100.00
40245;BME280;25963;42.694;23.600;2023-05-10T05:57:26;95531.97;;;9.75;100.00
40245;BME280;25963;42.694;23.600;2023-05-10T05:59:52;95499.56;;;9.48;100.00
40245;BME280;25963;42.694;23.600;2023-05-10T06:02:17;95529.34;;;9.62;100.00
40245;BME280;25963;42.694;23.600;2023-05-10T06:04:43;95524.47;;;9.58;100.00
40245;BME280;25963;42.694;23.600;2023-05-10T06:07:08;95527.13;;;9.85;95.74
40245;BME280;25963;42.694;23.600;2023-05-10T06:09:34;95515.75;;;9.91;96.32
40245;BME280;25963;42.694;23.600;2023-05-10T06:11:59;95532.78;;;9.89;93.17
40245;BME280;25963;42.694;23.600;2023-05-10T06:14:24;95534.81;;;10.06;95.33
40245;BME280;25963;42.694;23.600;2023-05-10T06:16:50;95531.97;;;10.08;95.35
40245;BME280;25963;42.694;23.600;2023-05-10T06:19:15;95522.06;;;9.77;95.98
40245;BME280;25963;42.694;23.600;2023-05-10T06:21:41;95530.53;;;9.99;98.91
40245;BME280;25963;42.694;23.600;2023-05-10T06:24:06;95538.25;;;10.00;93.36
40245;BME280;25963;42.694;23.600;2023-05-10T06:26:32;95525.88;;;10.07;95.98
40245;BME280;25963;42.694;23.600;2023-05-10T06:28:58;95533.97;;;10.13;94.20
40245;BME280;25963;42.694;23.600;2023-05-10T06:31:23;95530.38;;;9.87;92.36
40245;BME280;25963;42.694;23.600;2023-05-10T06:33:49;95543.31;;;10.02;92.89
40245;BME280;25963;42.694;23.600;2023-05-10T06:36:14;95537.25;;;9.88;92.39
40245;BME280;25963;42.694;23.600;2023-05-10T06:38:40;95539.66;;;10.10;92.80
40245;BME280;25963;42.694;23.600;2023-05-10T06:41:05;95537.84;;;10.23;91.08
40245;BME280;25963;42.694;23.600;2023-05-10T06:43:31;95543.72;;;9.92;88.69
40245;BME280;25963;42.694;23.600;2023-05-10T06:45:57;95544.13;;;9.96;91.19
40245;BME280;25963;42.694;23.600;2023-05-10T06:48:22;95560.94;;;10.21;88.78
40245;BME280;25963;42.694;23.600;2023-05-10T06:50:48;95555.25;;;10.38;90.70
40245;BME280;25963;42.694;23.600;2023-05-10T06:53:14;95525.84;;;10.34;85.80
40245;BME280;25963;42.694;23.600;2023-05-10T06:55:40;95556.28;;;10.37;85.84
40245;BME280;25963;42.694;23.600;2023-05-10T06:58:06;95521.81;;;10.12;87.37
40245;BME280;25963;42.694;23.600;2023-05-10T07:00:31;95545.13;;;10.41;88.84
40245;BME280;25963;42.694;23.600;2023-05-10T07:02:57;95521.97;;;10.43;87.81
40245;BME280;25963;42.694;23.600;2023-05-10T07:05:23;95520.59;;;10.21;85.59
40245;BME280;25963;42.694;23.600;2023-05-10T07:07:49;95565.25;;;10.29;85.52
40245;BME280;25963;42.694;23.600;2023-05-10T07:10:15;95563.00;;;10.06;81.40
40245;BME280;25963;42.694;23.600;2023-05-10T08:01:17;95558.03;;;11.14;84.38
40245;BME280;25963;42.694;23.600;2023-05-10T08:03:43;95580.34;;;11.25;84.49
40245;BME280;25963;42.694;23.600;2023-05-10T08:06:08;95580.47;;;10.99;81.90
40245;BME280;25963;42.694;23.600;2023-05-10T08:08:34;95583.84;;;11.12;82.64
40245;BME280;25963;42.694;23.600;2023-05-10T08:10:59;95578.91;;;11.29;84.35
40245;BME280;25963;42.694;23.600;2023-05-10T08:13:25;95583.06;;;11.05;79.48
40245;BME280;25963;42.694;23.600;2023-05-10T08:15:50;95566.38;;;11.11;81.32
40245;BME280;25963;42.694;23.600;2023-05-10T08:18:18;95566.63;;;11.10;77.34
40245;BME280;25963;42.694;23.600;2023-05-10T08:20:44;95567.63;;;11.09;79.00
40245;BME280;25963;42.694;23.600;2023-05-10T08:23:09;95590.63;;;11.40;75.55
40245;BME280;25963;42.694;23.600;2023-05-10T08:25:35;95560.50;;;11.09;78.41
40245;BME280;25963;42.694;23.600;2023-05-10T08:28:00;95564.88;;;11.60;79.51
40245;BME280;25963;42.694;23.600;2023-05-10T08:30:25;95552.31;;;11.87;78.78
40245;BME280;25963;42.694;23.600;2023-05-10T08:32:51;95553.94;;;11.88;75.37
40245;BME280;25963;42.694;23.600;2023-05-10T08:35:16;95566.13;;;11.90;74.13
40245;BME280;25963;42.694;23.600;2023-05-10T08:37:42;95570.41;;;11.84;74.69
40245;BME280;25963;42.694;23.600;2023-05-10T08:40:08;95575.84;;;11.96;74.51
40245;BME280;25963;42.694;23.600;2023-05-10T08:42:39;95584.28;;;11.79;75.71
40245;BME280;25963;42.694;23.600;2023-05-10T08:45:07;95565.09;;;11.59;75.55
40245;BME280;25963;42.694;23.600;2023-05-10T08:47:35;95555.28;;;11.66;74.34
40245;BME280;25963;42.694;23.600;2023-05-10T08:50:02;95566.09;;;11.64;73.86
40245;BME280;25963;42.694;23.600;2023-05-10T08:52:30;95560.97;;;11.70;74.92
40245;BME280;25963;42.694;23.600;2023-05-10T08:54:56;95567.03;;;11.77;73.47
40245;BME280;25963;42.694;23.600;2023-05-10T08:57:21;95569.84;;;11.82;74.54
40245;BME280;25963;42.694;23.600;2023-05-10T08:59:47;95589.84;;;12.03;73.31
40245;BME280;25963;42.694;23.600;2023-05-10T09:02:13;95588.03;;;12.22;74.22
40245;BME280;25963;42.694;23.600;2023-05-10T09:04:39;95584.66;;;12.58;72.44
40245;BME280;25963;42.694;23.600;2023-05-10T09:07:06;95584.56;;;12.83;70.01
40245;BME280;25963;42.694;23.600;2023-05-10T09:09:32;95574.34;;;12.68;69.22
40245;BME280;25963;42.694;23.600;2023-05-10T09:11:59;95549.88;;;12.91;72.67
40245;BME280;25963;42.694;23.600;2023-05-10T09:14:25;95549.66;;;12.93;68.58
40245;BME280;25963;42.694;23.600;2023-05-10T09:16:51;95554.13;;;13.11;66.81
40245;BME280;25963;42.694;23.600;2023-05-10T09:19:19;95564.47;;;13.12;67.84
40245;BME280;25963;42.694;23.600;2023-05-10T09:21:45;95544.47;;;13.16;69.35
40245;BME280;25963;42.694;23.600;2023-05-10T09:24:11;95552.19;;;13.18;70.61
40245;BME280;25963;42.694;23.600;2023-05-10T09:26:46;95561.28;;;13.22;66.98
40245;BME280;25963;42.694;23.600;2023-05-10T09:29:13;95562.09;;;13.71;69.63
40245;BME280;25963;42.694;23.600;2023-05-10T09:31:47;95535.72;;;14.00;67.64
40245;BME280;25963;42.694;23.600;2023-05-10T09:34:17;95562.34;;;13.81;66.37
40245;BME280;25963;42.694;23.600;2023-05-10T09:37:00;95543.69;;;13.46;68.18
40245;BME280;25963;42.694;23.600;2023-05-10T09:39:31;95514.59;;;13.28;69.05
40245;BME280;25963;42.694;23.600;2023-05-10T09:41:57;95541.22;;;13.33;68.95
40245;BME280;25963;42.694;23.600;2023-05-10T09:44:26;95536.72;;;13.33;67.04
40245;BME280;25963;42.694;23.600;2023-05-10T09:47:01;95542.34;;;13.55;68.00
40245;BME280;25963;42.694;23.600;2023-05-10T09:49:27;95520.59;;;13.65;68.76
40245;BME280;25963;42.694;23.600;2023-05-10T09:52:00;95534.31;;;13.74;69.04
40245;BME280;25963;42.694;23.600;2023-05-10T09:54:26;95518.34;;;14.04;68.18
40245;BME280;25963;42.694;23.600;2023-05-10T09:56:52;95523.97;;;14.07;66.77
40245;BME280;25963;42.694;23.600;2023-05-10T09:59:18;95522.09;;;13.84;65.76
40245;BME280;25963;42.694;23.600;2023-05-10T10:01:49;95518.91;;;13.94;66.32
40245;BME280;25963;42.694;23.600;2023-05-10T10:04:15;95541.72;;;13.95;66.24
40245;BME280;25963;42.694;23.600;2023-05-10T10:06:41;95540.66;;;13.84;64.14
40245;BME280;25963;42.694;23.600;2023-05-10T10:09:07;95535.31;;;13.61;68.36
40245;BME280;25963;42.694;23.600;2023-05-10T10:11:37;95505.34;;;13.60;66.13
40245;BME280;25963;42.694;23.600;2023-05-10T10:14:07;95510.38;;;13.92;66.68
40245;BME280;25963;42.694;23.600;2023-05-10T10:16:33;95507.53;;;13.63;66.45
40245;BME280;25963;42.694;23.600;2023-05-10T10:18:58;95501.28;;;13.46;65.90
40245;BME280;25963;42.694;23.600;2023-05-10T10:21:27;95500.78;;;13.67;68.11
40245;BME280;25963;42.694;23.600;2023-05-10T10:23:52;95504.91;;;13.63;68.02
40245;BME280;25963;42.694;23.600;2023-05-10T10:26:18;95508.56;;;13.51;66.50
40245;BME280;25963;42.694;23.600;2023-05-10T10:29:07;95515.53;;;13.87;68.82
40245;BME280;25963;42.694;23.600;2023-05-10T10:31:53;95503.06;;;13.76;66.22
40245;BME280;25963;42.694;23.600;2023-05-10T10:34:28;95512.41;;;13.78;61.58
40245;BME280;25963;42.694;23.600;2023-05-10T10:36:56;95509.78;;;13.90;61.80
40245;BME280;25963;42.694;23.600;2023-05-10T10:39:23;95516.47;;;14.04;65.08
40245;BME280;25963;42.694;23.600;2023-05-10T10:41:57;95492.94;;;13.84;64.36
40245;BME280;25963;42.694;23.600;2023-05-10T10:49:28;95506.09;;;14.03;62.92
40245;BME280;25963;42.694;23.600;2023-05-10T10:52:20;95523.25;;;14.47;63.87
40245;BME280;25963;42.694;23.600;2023-05-10T10:54:53;95510.16;;;14.52;64.42
40245;BME280;25963;42.694;23.600;2023-05-10T10:57:22;95526.06;;;14.29;61.17
40245;BME280;25963;42.694;23.600;2023-05-10T10:59:48;95524.56;;;14.56;64.11
40245;BME280;25963;42.694;23.600;2023-05-10T11:02:45;95527.09;;;14.63;60.23
40245;BME280;25963;42.694;23.600;2023-05-10T11:07:59;95510.13;;;14.29;59.93
40245;BME280;25963;42.694;23.600;2023-05-10T11:10:26;95530.44;;;14.35;61.09
40245;BME280;25963;42.694;23.600;2023-05-10T11:13:02;95522.47;;;14.35;61.00
40245;BME280;25963;42.694;23.600;2023-05-10T11:15:31;95514.41;;;14.18;61.53
40245;BME280;25963;42.694;23.600;2023-05-10T11:17:56;95502.28;;;13.87;60.14
40245;BME280;25963;42.694;23.600;2023-05-10T11:20:22;95499.88;;;13.85;60.98
40245;BME280;25963;42.694;23.600;2023-05-10T11:22:53;95509.78;;;13.90;61.68
40245;BME280;25963;42.694;23.600;2023-05-10T11:25:23;95516.22;;;14.06;62.13
40245;BME280;25963;42.694;23.600;2023-05-10T11:27:51;95520.94;;;13.68;63.96
40245;BME280;25963;42.694;23.600;2023-05-10T11:30:17;95505.97;;;13.86;62.57
40245;BME280;25963;42.694;23.600;2023-05-10T11:32:43;95483.94;;;13.74;61.86
40245;BME280;25963;42.694;23.600;2023-05-10T11:35:12;95517.38;;;13.86;62.29
40245;BME280;25963;42.694;23.600;2023-05-10T11:37:41;95494.34;;;14.34;62.57
40245;BME280;25963;42.694;23.600;2023-05-10T11:40:12;95503.22;;;14.51;60.90
40245;BME280;25963;42.694;23.600;2023-05-10T11:42:38;95504.03;;;14.05;60.38
40245;BME280;25963;42.694;23.600;2023-05-10T11:45:05;95521.66;;;14.23;60.48
40245;BME280;25963;42.694;23.600;2023-05-10T11:47:30;95504.38;;;14.08;59.46
40245;BME280;25963;42.694;23.600;2023-05-10T11:49:56;95515.78;;;14.32;62.09
40245;BME280;25963;42.694;23.600;2023-05-10T11:52:23;95499.97;;;14.02;60.46
40245;BME280;25963;42.694;23.600;2023-05-10T11:54:52;95488.69;;;14.30;61.43
40245;BME280;25963;42.694;23.600;2023-05-10T11:57:19;95517.16;;;14.23;62.85
40245;BME280;25963;42.694;23.600;2023-05-10T11:59:46;95490.53;;;13.95;64.49
40245;BME280;25963;42.694;23.600;2023-05-10T12:02:13;95482.47;;;14.25;65.97
40245;BME280;25963;42.694;23.600;2023-05-10T12:04:39;95483.09;;;14.67;63.41
40245;BME280;25963;42.694;23.600;2023-05-10T12:07:05;95487.72;;;14.72;59.98
40245;BME280;25963;42.694;23.600;2023-05-10T12:09:30;95478.81;;;14.78;60.82
40245;BME280;25963;42.694;23.600;2023-05-10T12:11:56;95500.75;;;15.14;62.04
40245;BME280;25963;42.694;23.600;2023-05-10T12:14:24;95480.25;;;14.97;61.65
40245;BME280;25963;42.694;23.600;2023-05-10T12:16:49;95489.00;;;14.98;60.06
40245;BME280;25963;42.694;23.600;2023-05-10T12:19:19;95484.19;;;15.23;61.27
40245;BME280;25963;42.694;23.600;2023-05-10T12:21:48;95496.00;;;14.87;58.90
40245;BME280;25963;42.694;23.600;2023-05-10T12:24:24;95475.00;;;15.31;58.79
40245;BME280;25963;42.694;23.600;2023-05-10T12:26:50;95463.06;;;15.17;56.54
40245;BME280;25963;42.694;23.600;2023-05-10T12:29:17;95460.25;;;14.95;58.77
40245;BME280;25963;42.694;23.600;2023-05-10T12:31:57;95452.94;;;15.14;58.10
40245;BME280;25963;42.694;23.600;2023-05-10T12:34:32;95470.50;;;15.32;59.76
40245;BME280;25963;42.694;23.600;2023-05-10T12:36:58;95439.41;;;15.49;57.60
40245;BME280;25963;42.694;23.600;2023-05-10T12:39:24;95462.47;;;15.60;56.63
40245;BME280;25963;42.694;23.600;2023-05-10T12:41:50;95442.34;;;15.81;57.71
40245;BME280;25963;42.694;23.600;2023-05-10T12:44:36;95439.97;;;15.80;54.86
40245;BME280;25963;42.694;23.600;2023-05-10T12:47:14;95418.50;;;15.52;54.35
40245;BME280;25963;42.694;23.600;2023-05-10T12:49:47;95439.88;;;15.74;52.67
40245;BME280;25963;42.694;23.600;2023-05-10T12:52:12;95428.13;;;15.25;52.53
40245;BME280;25963;42.694;23.600;2023-05-10T12:54:41;95433.81;;;15.00;56.83
40245;BME280;25963;42.694;23.600;2023-05-10T12:57:14;95419.03;;;15.21;59.84
40245;BME280;25963;42.694;23.600;2023-05-10T12:59:40;95422.66;;;15.48;60.28
40245;BME280;25963;42.694;23.600;2023-05-10T13:02:06;95447.63;;;15.64;56.32
40245;BME280;25963;42.694;23.600;2023-05-10T13:04:31;95425.31;;;15.48;57.55
40245;BME280;25963;42.694;23.600;2023-05-10T13:06:57;95429.47;;;15.73;60.61
40245;BME280;25963;42.694;23.600;2023-05-10T13:09:44;95427.50;;;15.85;58.52
40245;BME280;25963;42.694;23.600;2023-05-10T13:15:00;95443.94;;;15.48;59.99
40245;BME280;25963;42.694;23.600;2023-05-10T13:17:26;95394.78;;;15.34;60.76
40245;BME280;25963;42.694;23.600;2023-05-10T13:19:51;95421.25;;;15.74;60.70
40245;BME280;25963;42.694;23.600;2023-05-10T13:22:23;95416.72;;;15.41;60.02
40245;BME280;25963;42.694;23.600;2023-05-10T13:24:48;95429.31;;;15.80;59.76
40245;BME280;25963;42.694;23.600;2023-05-10T13:27:13;95403.50;;;15.63;61.10
40245;BME280;25963;42.694;23.600;2023-05-10T13:29:39;95412.19;;;15.42;58.79
40245;BME280;25963;42.694;23.600;2023-05-10T13:32:04;95395.84;;;15.33;62.25
40245;BME280;25963;42.694;23.600;2023-05-10T13:34:31;95396.66;;;15.50;61.32
40245;BME280;25963;42.694;23.600;2023-05-10T13:40:19;95399.69;;;14.80;63.16
40245;BME280;25963;42.694;23.600;2023-05-10T13:42:54;95396.88;;;14.70;63.25
40245;BME280;25963;42.694;23.600;2023-05-10T13:45:22;95395.25;;;14.97;66.49
40245;BME280;25963;42.694;23.600;2023-05-10T13:50:43;95397.03;;;15.09;65.05
40245;BME280;25963;42.694;23.600;2023-05-10T13:53:11;95395.81;;;14.71;65.44
40245;BME280;25963;42.694;23.600;2023-05-10T13:59:00;95389.53;;;14.60;66.68
40245;BME280;25963;42.694;23.600;2023-05-10T14:01:26;95397.34;;;14.67;66.46
40245;BME280;25963;42.694;23.600;2023-05-10T14:03:51;95402.03;;;14.76;65.10
40245;BME280;25963;42.694;23.600;2023-05-10T14:06:17;95398.09;;;14.79;65.65
40245;BME280;25963;42.694;23.600;2023-05-10T14:08:43;95407.28;;;14.88;66.27
40245;BME280;25963;42.694;23.600;2023-05-10T14:11:09;95380.66;;;14.54;65.22
40245;BME280;25963;42.694;23.600;2023-05-10T14:13:34;95394.53;;;14.33;66.47